MST,Max TemperatureF,Mean TemperatureF,Min TemperatureF,Max Dew PointF,MeanDew PointF,Min DewpointF,Max Humidity, Mean Humidity, Min Humidity, Max Sea Level PressureIn, Mean Sea Level PressureIn, Min Sea Level PressureIn, Max VisibilityMiles, Mean VisibilityMiles, Min VisibilityMiles, Max Wind SpeedMPH, Mean Wind SpeedMPH, Max Gust SpeedMPH,PrecipitationIn, CloudCover, Events, WindDirDegrees
2013-10-1,93,77,60,38,31,27,32,21,10,29.94,29.87,29.80,10,10,10,12,5,16,0.00,0,,181
2013-10-2,91,77,62,45,38,31,43,28,12,29.92,29.85,29.76,10,10,10,12,6,,0.00,0,,183
2013-10-3,93,79,65,50,38,23,44,27,9,29.83,29.74,29.66,10,10,10,20,8,24,0.00,0,,208
2013-10-4,87,74,61,45,36,19,43,28,13,29.94,29.85,29.76,10,10,10,17,7,23,0.00,0,,268
2013-10-5,84,70,55,21,14,3,24,15,5,30.06,30.01,29.95,10,10,10,16,6,21,0.00,0,,307
2013-10-6,90,70,50,18,14,10,22,14,5,30.07,30.00,29.94,10,10,10,24,8,29,0.00,0,,114
2013-10-7,95,79,63,28,22,18,18,13,8,29.97,29.89,29.81,10,10,10,18,9,24,0.00,0,,173
2013-10-8,90,77,63,32,28,23,28,19,10,29.86,29.79,29.73,10,10,10,17,8,23,0.00,0,,180
2013-10-9,89,76,62,42,34,26,33,23,13,29.74,29.69,29.62,10,10,10,33,14,41,0.00,0,,177
2013-10-10,71,64,57,51,45,39,63,46,29,29.99,29.84,29.68,10,10,10,24,11,29,0.00,3,,282
2013-10-11,77,64,50,42,37,32,66,44,22,29.97,29.92,29.86,10,10,10,13,5,17,0.00,0,,242
2013-10-12,86,69,52,35,32,30,50,32,13,29.93,29.87,29.79,10,10,10,14,6,17,0.00,0,,192
2013-10-13,89,74,58,43,36,31,43,29,14,29.94,29.87,29.81,10,10,10,23,8,38,0.00,0,,206
2013-10-14,83,70,56,42,36,31,55,36,17,30.00,29.92,29.86,10,10,10,14,4,20,0.00,0,,225
2013-10-15,83,70,56,38,30,24,43,28,13,29.92,29.87,29.80,10,10,10,17,6,23,0.00,0,,229
2013-10-16,80,65,50,26,19,4,35,20,5,30.02,29.97,29.92,10,10,10,10,5,14,0.00,0,,168
2013-10-17,80,65,49,18,14,8,26,17,7,30.04,29.95,29.86,10,10,10,13,6,18,0.00,0,,176
2013-10-18,82,65,48,21,18,15,29,19,9,29.99,29.93,29.88,10,10,10,10,6,16,0.00,0,,171
2013-10-19,86,68,50,21,16,10,29,18,6,30.01,29.95,29.88,10,10,10,17,6,20,0.00,0,,174
2013-10-20,85,68,50,16,13,8,24,15,6,29.95,29.88,29.81,10,10,10,14,7,21,0.00,0,,180
2013-10-21,86,69,52,17,12,9,21,14,6,29.97,29.92,29.87,10,10,10,15,7,18,0.00,0,,167
2013-10-22,90,71,52,22,13,5,19,12,4,30.01,29.93,29.85,10,10,10,21,9,24,0.00,0,,130
2013-10-23,92,75,57,25,22,19,23,15,7,29.99,29.85,29.77,10,10,10,21,8,24,0.00,0,,152
2013-10-24,91,75,58,26,22,19,25,17,8,29.94,29.87,29.79,10,10,10,16,7,23,0.00,0,,206
2013-10-25,86,70,53,28,25,19,32,21,9,30.03,29.98,29.94,10,10,10,12,6,15,0.00,0,,167
2013-10-26,87,69,51,29,25,20,35,22,8,30.09,30.00,29.94,10,10,10,12,5,17,0.00,0,,125
2013-10-27,90,75,60,34,24,17,25,17,8,29.92,29.83,29.72,10,10,10,18,9,28,0.00,0,,180
2013-10-28,82,71,60,37,30,21,34,23,11,29.86,29.81,29.75,10,10,9,28,13,37,0.00,0,,185
2013-10-29,83,70,57,38,32,25,47,30,13,29.89,29.84,29.75,10,10,10,26,11,35,0.00,0,,213
2013-10-30,70,59,47,37,32,25,56,40,24,30.01,29.93,29.85,10,10,10,17,6,22,0.00,0,,282
2013-10-31,75,60,44,29,22,9,49,29,9,30.10,30.03,29.97,10,10,10,10,5,15,0.00,0,,163